Time;durP1;ratioP1;P1;durP2;ratioP2;P2;SDS_P1;SDS_P2;PMS_P1;PMS_P2;Temp;Humidity;BMP_temperature;BMP_pressure;BME280_temperature;BME280_humidity;BME280_pressure;Samples;Min_cycle;Max_cycle;Signal;HPM_P1;HPM_P2
2022/01/27 00:00:43;;;;;;;32.63;16.73;;;6.30;99.90;;;;;;5003572;28;20191;-79
2022/01/27 00:03:30;;;;;;;31.83;15.90;;;6.30;99.90;;;;;;4988660;28;20191;-78
2022/01/27 00:06:01;;;;;;;28.50;15.93;;;6.30;99.90;;;;;;4976073;28;20222;-79
2022/01/27 00:08:31;;;;;;;32.10;16.23;;;6.30;99.90;;;;;;4983522;28;20562;-78
2022/01/27 00:11:03;;;;;;;30.37;15.80;;;6.30;99.90;;;;;;5003879;28;20192;-78
2022/01/27 00:13:32;;;;;;;28.00;15.87;;;6.20;99.90;;;;;;4989503;28;20257;-77
2022/01/27 00:16:11;;;;;;;31.57;15.97;;;6.30;99.90;;;;;;5003876;28;20191;-78
2022/01/27 00:18:37;;;;;;;29.23;15.07;;;6.20;99.90;;;;;;4988750;28;20191;-77
2022/01/27 00:21:03;;;;;;;32.23;15.90;;;6.20;99.90;;;;;;5009076;28;20725;-79
2022/01/27 00:23:28;;;;;;;30.43;16.20;;;6.20;99.90;;;;;;5007882;28;20199;-79
2022/01/27 00:25:54;;;;;;;30.73;14.87;;;6.30;99.90;;;;;;4990972;28;20327;-79
2022/01/27 00:28:20;;;;;;;30.90;15.67;;;6.30;99.90;;;;;;5008121;28;20200;-79
2022/01/27 00:30:45;;;;;;;32.33;15.87;;;6.30;99.90;;;;;;4992477;28;20959;-77
2022/01/27 00:33:11;;;;;;;31.17;14.83;;;6.30;99.90;;;;;;4989063;28;20199;-78
2022/01/27 00:35:37;;;;;;;34.30;14.70;;;6.40;99.90;;;;;;4991303;28;20195;-78
2022/01/27 00:38:03;;;;;;;30.63;16.00;;;6.30;99.90;;;;;;4990530;28;20230;-79
2022/01/27 00:40:29;;;;;;;27.57;15.17;;;6.40;99.90;;;;;;5007394;28;20653;-78
2022/01/27 00:42:55;;;;;;;30.57;16.27;;;6.40;99.90;;;;;;4984183;28;20216;-78
2022/01/27 00:45:22;;;;;;;30.77;15.30;;;6.40;99.90;;;;;;4986211;28;20704;-79
2022/01/27 00:47:48;;;;;;;32.57;15.97;;;6.50;99.90;;;;;;4991027;28;20206;-77
2022/01/27 00:50:17;;;;;;;30.90;14.60;;;6.50;99.90;;;;;;5007162;28;20231;-78
2022/01/27 00:52:47;;;;;;;27.83;13.93;;;6.50;99.90;;;;;;4983342;28;20199;-79
2022/01/27 00:55:14;;;;;;;27.17;14.07;;;6.50;99.90;;;;;;4984584;28;20192;-79
2022/01/27 01:00:31;;;;;;;27.73;13.97;;;6.60;99.90;;;;;;5008794;28;20755;-78
2022/01/27 01:03:04;;;;;;;27.03;14.80;;;6.60;99.90;;;;;;5005545;28;20187;-78
2022/01/27 01:16:12;;;;;;;25.17;13.03;;;6.60;99.90;;;;;;5007839;28;20680;-78
2022/01/27 01:18:57;;;;;;;26.03;12.93;;;6.60;99.90;;;;;;5006799;28;20191;-78
2022/01/27 01:32:19;;;;;;;40.00;14.77;;;6.60;99.90;;;;;;4986987;28;20195;-77
2022/01/27 01:34:48;;;;;;;27.40;12.77;;;6.60;99.90;;;;;;5004656;28;20290;-78
2022/01/27 01:37:17;;;;;;;30.47;14.90;;;6.60;99.90;;;;;;5007142;28;20184;-79
2022/01/27 01:39:43;;;;;;;33.73;14.60;;;6.60;99.90;;;;;;5005863;28;20198;-78
2022/01/27 01:42:10;;;;;;;31.57;14.67;;;6.60;99.90;;;;;;4963724;28;20970;-79
2022/01/27 01:44:37;;;;;;;37.53;15.83;;;6.60;99.90;;;;;;4969740;28;20195;-78
2022/01/27 01:47:03;;;;;;;27.83;14.63;;;6.60;99.90;;;;;;5005102;28;20277;-78
2022/01/27 01:49:30;;;;;;;36.00;15.70;;;6.60;99.90;;;;;;4989781;28;20258;-78
2022/01/27 01:52:03;;;;;;;32.40;15.13;;;6.60;99.90;;;;;;5007351;28;20188;-78
2022/01/27 01:54:28;;;;;;;33.57;15.33;;;6.60;99.90;;;;;;5006934;28;20195;-78
2022/01/27 01:56:54;;;;;;;26.00;13.03;;;6.50;99.90;;;;;;5006181;28;20605;-79
2022/01/27 01:59:20;;;;;;;43.37;17.07;;;6.50;99.90;;;;;;5006294;28;20196;-77
2022/01/27 02:01:46;;;;;;;29.20;15.20;;;6.50;99.90;;;;;;5004432;28;20203;-79
2022/01/27 02:04:12;;;;;;;30.93;15.63;;;6.40;99.90;;;;;;5005009;28;20200;-79
2022/01/27 02:20:02;;;;;;;45.47;17.07;;;6.30;99.90;;;;;;5005503;28;20225;-78
2022/01/27 02:22:28;;;;;;;31.20;15.63;;;6.30;99.90;;;;;;5005667;28;20195;-79
2022/01/27 02:24:53;;;;;;;35.33;16.40;;;6.20;99.90;;;;;;4988706;28;20629;-78
2022/01/27 02:27:20;;;;;;;33.33;14.80;;;6.20;99.90;;;;;;4988046;28;20290;-78
2022/01/27 02:29:46;;;;;;;30.00;15.53;;;6.20;99.90;;;;;;4996488;28;20267;-78
2022/01/27 02:32:15;;;;;;;30.03;15.90;;;6.20;99.90;;;;;;4982925;28;20298;-79
2022/01/27 02:34:41;;;;;;;37.47;16.40;;;6.20;99.90;;;;;;5004312;28;20298;-78
2022/01/27 02:37:08;;;;;;;37.53;15.90;;;6.20;99.90;;;;;;4989064;28;20202;-77
2022/01/27 02:39:34;;;;;;;34.27;17.07;;;6.30;99.90;;;;;;4987678;28;20202;-78
2022/01/27 02:42:25;;;;;;;34.27;15.90;;;6.30;99.90;;;;;;4988598;28;20207;-80
2022/01/27 02:45:02;;;;;;;34.70;15.97;;;6.30;99.90;;;;;;5006431;28;20191;-79
2022/01/27 02:47:28;;;;;;;31.03;15.63;;;6.30;99.90;;;;;;5005130;28;20210;-77
2022/01/27 02:49:54;;;;;;;31.83;16.33;;;6.30;99.90;;;;;;4978846;28;20230;-79
2022/01/27 02:52:20;;;;;;;31.00;16.00;;;6.30;99.90;;;;;;5019839;28;20198;-79
2022/01/27 02:54:45;;;;;;;29.87;17.03;;;6.20;99.90;;;;;;5003181;28;20531;-79
2022/01/27 02:57:11;;;;;;;33.97;18.00;;;6.20;99.90;;;;;;5004205;28;20223;-78
2022/01/27 02:59:37;;;;;;;32.23;16.53;;;6.20;99.90;;;;;;4982591;28;20219;-78
2022/01/27 03:02:03;;;;;;;38.83;17.33;;;6.20;99.90;;;;;;5018993;28;20187;-79
2022/01/27 03:04:30;;;;;;;30.93;17.17;;;6.20;99.90;;;;;;5003859;28;20705;-78
2022/01/27 03:06:56;;;;;;;35.47;17.57;;;6.20;99.90;;;;;;5004805;28;20215;-77
2022/01/27 03:09:22;;;;;;;38.73;18.23;;;6.10;99.90;;;;;;5014980;28;20673;-79
2022/01/27 03:12:06;;;;;;;34.97;16.43;;;6.10;99.90;;;;;;5003895;28;20179;-79
2022/01/27 03:14:32;;;;;;;44.07;17.77;;;6.10;99.90;;;;;;5005161;28;20242;-77
2022/01/27 03:16:59;;;;;;;37.13;18.20;;;6.10;99.90;;;;;;4986856;28;20658;-78
2022/01/27 03:19:26;;;;;;;35.40;17.40;;;6.10;99.90;;;;;;4986426;28;20205;-78
2022/01/27 03:21:53;;;;;;;34.77;17.47;;;6.00;99.90;;;;;;5004322;28;20191;-78
2022/01/27 03:24:20;;;;;;;30.57;16.80;;;6.00;99.90;;;;;;4989849;28;20283;-78
2022/01/27 03:26:46;;;;;;;40.00;18.53;;;6.00;99.90;;;;;;5003713;28;20215;-78
2022/01/27 03:29:12;;;;;;;35.33;18.17;;;5.90;99.90;;;;;;4968366;28;20195;-79
2022/01/27 03:31:38;;;;;;;34.13;17.33;;;6.00;99.90;;;;;;5002201;28;20199;-79
2022/01/27 03:34:04;;;;;;;38.60;17.50;;;5.90;99.90;;;;;;4987535;28;20245;-79
2022/01/27 03:36:29;;;;;;;32.80;17.30;;;5.90;99.90;;;;;;5002894;28;20195;-78
2022/01/27 03:38:55;;;;;;;34.60;19.20;;;5.80;99.90;;;;;;5002592;28;20228;-77
2022/01/27 03:41:23;;;;;;;38.13;18.63;;;5.80;99.90;;;;;;5003063;28;20285;-79
2022/01/27 03:43:51;;;;;;;40.40;19.17;;;5.80;99.90;;;;;;5003971;28;20211;-78
2022/01/27 03:46:17;;;;;;;39.70;19.53;;;5.80;99.90;;;;;;4998966;28;20210;-78
2022/01/27 03:48:43;;;;;;;32.40;18.53;;;5.80;99.90;;;;;;5005017;28;20189;-79
2022/01/27 03:51:11;;;;;;;41.23;18.10;;;5.80;99.90;;;;;;5006147;28;20993;-77
2022/01/27 03:53:36;;;;;;;44.77;21.07;;;5.80;99.90;;;;;;5003714;28;20709;-77
2022/01/27 03:56:02;;;;;;;37.43;18.93;;;5.80;99.90;;;;;;4991253;28;20207;-78
2022/01/27 03:58:28;;;;;;;35.07;18.73;;;5.80;99.90;;;;;;5006636;28;20222;-78
2022/01/27 04:00:53;;;;;;;37.17;18.93;;;5.80;99.90;;;;;;4975462;28;20198;-78
2022/01/27 04:03:21;;;;;;;35.27;18.40;;;5.80;99.90;;;;;;4991303;28;20199;-80
2022/01/27 04:05:53;;;;;;;34.33;18.80;;;5.80;99.90;;;;;;5008553;28;20306;-78
2022/01/27 04:08:20;;;;;;;36.53;19.97;;;5.90;99.90;;;;;;4992105;28;20214;-78
2022/01/27 04:10:46;;;;;;;34.90;18.93;;;5.90;99.90;;;;;;5007050;28;20191;-78
2022/01/27 04:13:12;;;;;;;36.10;18.17;;;5.90;99.90;;;;;;5007545;28;20219;-79
2022/01/27 04:15:40;;;;;;;32.33;18.37;;;6.00;99.90;;;;;;4992301;28;20286;-78
2022/01/27 04:18:06;;;;;;;30.30;17.73;;;6.10;99.90;;;;;;5006772;28;20183;-80
2022/01/27 04:20:33;;;;;;;36.83;19.93;;;6.10;99.90;;;;;;5003493;28;20187;-78
2022/01/27 04:22:58;;;;;;;32.73;17.83;;;6.20;99.90;;;;;;5006682;28;20540;-78
2022/01/27 04:25:24;;;;;;;29.10;17.17;;;6.30;99.90;;;;;;5005470;28;20253;-77
2022/01/27 04:27:54;;;;;;;35.77;17.40;;;6.30;99.90;;;;;;4991032;28;20200;-78
2022/01/27 04:30:23;;;;;;;29.60;15.67;;;6.30;99.90;;;;;;5007076;28;20187;-78
2022/01/27 04:32:56;;;;;;;29.93;15.63;;;6.40;99.90;;;;;;4986430;28;20250;-79
2022/01/27 04:35:25;;;;;;;27.30;16.87;;;6.40;99.90;;;;;;5008415;28;20183;-78
2022/01/27 04:40:29;;;;;;;35.53;16.80;;;6.50;99.90;;;;;;5007809;28;20215;-80
2022/01/27 04:43:06;;;;;;;30.30;16.40;;;6.50;99.90;;;;;;5007061;28;20211;-78
2022/01/27 04:45:45;;;;;;;27.07;15.77;;;6.60;99.90;;;;;;4994273;28;20569;-79
2022/01/27 04:48:15;;;;;;;35.07;15.63;;;6.60;99.90;;;;;;5007588;28;20218;-79
2022/01/27 04:50:41;;;;;;;29.50;15.87;;;6.60;99.90;;;;;;4991834;28;20243;-79
2022/01/27 04:53:11;;;;;;;27.80;15.00;;;6.60;99.90;;;;;;4990626;28;20259;-79
2022/01/27 04:55:39;;;;;;;37.57;15.97;;;6.60;99.90;;;;;;4987502;28;20732;-77
2022/01/27 04:58:10;;;;;;;28.73;15.33;;;6.60;99.90;;;;;;5015802;28;20207;-78
2022/01/27 05:00:36;;;;;;;24.23;14.80;;;6.60;99.90;;;;;;4986178;28;20250;-79
2022/01/27 05:03:11;;;;;;;22.53;13.83;;;6.70;99.90;;;;;;4990471;28;20241;-79
2022/01/27 05:05:38;;;;;;;23.37;14.10;;;6.70;99.90;;;;;;4985147;28;20207;-77
2022/01/27 05:08:06;;;;;;;23.10;14.57;;;6.80;99.90;;;;;;4989767;28;20195;-79
2022/01/27 05:10:34;;;;;;;27.17;14.70;;;6.80;99.90;;;;;;5006605;28;20188;-79
2022/01/27 05:13:08;;;;;;;24.00;14.50;;;6.90;99.90;;;;;;5006678;28;20207;-78
2022/01/27 05:15:43;;;;;;;23.87;14.30;;;6.90;99.90;;;;;;5006609;28;20199;-79
2022/01/27 05:18:10;;;;;;;23.73;14.00;;;7.00;99.90;;;;;;5006981;28;20265;-79
2022/01/27 05:20:35;;;;;;;28.00;14.73;;;7.00;99.90;;;;;;4988514;28;20206;-79
2022/01/27 05:23:01;;;;;;;22.23;12.93;;;7.00;99.90;;;;;;5002600;28;20199;-78
2022/01/27 05:25:27;;;;;;;29.97;14.83;;;7.10;99.90;;;;;;4998969;28;20195;-79
2022/01/27 05:27:52;;;;;;;27.40;13.70;;;7.10;99.90;;;;;;4985677;28;20270;-79
2022/01/27 05:30:18;;;;;;;32.00;13.57;;;7.10;99.90;;;;;;4970752;28;20196;-79
2022/01/27 05:32:45;;;;;;;19.57;13.70;;;7.10;99.90;;;;;;4990869;28;20562;-78
2022/01/27 05:35:10;;;;;;;29.30;12.70;;;7.20;99.90;;;;;;4984466;28;20192;-78
2022/01/27 05:37:36;;;;;;;23.07;13.67;;;7.20;99.90;;;;;;5007654;28;20195;-78
2022/01/27 05:40:02;;;;;;;30.67;14.33;;;7.20;99.90;;;;;;4971690;28;20329;-79
2022/01/27 05:42:28;;;;;;;27.17;14.17;;;7.30;99.90;;;;;;5007228;28;20212;-79
2022/01/27 05:44:53;;;;;;;25.73;14.33;;;7.30;99.90;;;;;;5005497;28;20202;-79
2022/01/27 05:47:19;;;;;;;20.83;12.87;;;7.30;99.90;;;;;;4999279;28;20310;-78
2022/01/27 05:49:45;;;;;;;29.47;13.47;;;7.30;99.90;;;;;;5006050;28;20231;-78
2022/01/27 05:52:10;;;;;;;27.20;14.13;;;7.40;99.90;;;;;;4989783;28;20191;-79
2022/01/27 05:54:38;;;;;;;30.97;13.80;;;7.40;99.90;;;;;;4989826;28;20265;-79
2022/01/27 05:57:04;;;;;;;26.50;13.20;;;7.40;99.90;;;;;;5006089;28;20278;-80
2022/01/27 05:59:29;;;;;;;25.93;13.07;;;7.30;99.90;;;;;;5009955;28;20514;-78
2022/01/27 06:01:55;;;;;;;25.00;14.40;;;7.40;99.90;;;;;;5006129;28;20188;-78
2022/01/27 06:04:21;;;;;;;26.97;14.17;;;7.40;99.90;;;;;;5006335;28;20743;-78
2022/01/27 06:06:46;;;;;;;29.87;14.03;;;7.40;99.90;;;;;;4988282;28;20211;-79
2022/01/27 06:09:12;;;;;;;28.83;14.83;;;7.50;99.90;;;;;;4974136;28;20254;-79
2022/01/27 06:11:38;;;;;;;22.53;14.20;;;7.50;99.90;;;;;;4990304;28;20197;-79
2022/01/27 06:14:04;;;;;;;22.47;13.93;;;7.50;99.90;;;;;;4998779;28;20215;-79
2022/01/27 06:16:29;;;;;;;28.50;13.97;;;7.50;99.90;;;;;;4989686;28;20203;-79
2022/01/27 06:18:55;;;;;;;34.63;14.70;;;7.50;99.90;;;;;;5005069;28;20191;-79
2022/01/27 06:21:21;;;;;;;24.93;14.50;;;7.50;99.90;;;;;;5005479;28;20199;-79
2022/01/27 06:23:46;;;;;;;30.40;15.00;;;7.50;99.90;;;;;;5001403;28;20250;-78
2022/01/27 06:26:12;;;;;;;21.73;13.67;;;7.50;99.90;;;;;;5006516;28;20235;-80
2022/01/27 06:28:38;;;;;;;26.87;15.33;;;7.50;99.90;;;;;;4987628;28;20218;-78
2022/01/27 06:31:04;;;;;;;31.03;14.77;;;7.50;99.90;;;;;;4989201;28;20646;-78
2022/01/27 06:33:29;;;;;;;22.87;14.13;;;7.50;99.90;;;;;;5014151;28;20195;-78
2022/01/27 06:35:55;;;;;;;33.20;15.77;;;7.50;99.90;;;;;;4981037;28;20218;-78
2022/01/27 06:38:21;;;;;;;34.90;15.67;;;7.60;99.90;;;;;;4989044;28;20195;-78
2022/01/27 06:40:46;;;;;;;33.17;15.43;;;7.60;99.90;;;;;;5004643;28;20205;-80
2022/01/27 06:43:14;;;;;;;18.47;12.50;;;7.60;99.90;;;;;;5005472;28;20223;-78
2022/01/27 06:45:39;;;;;;;31.03;15.30;;;7.60;99.90;;;;;;4988887;28;20256;-78
2022/01/27 06:48:05;;;;;;;34.60;15.90;;;7.60;99.90;;;;;;5006301;28;20676;-79
2022/01/27 06:50:32;;;;;;;25.27;14.83;;;7.60;99.90;;;;;;4989560;28;20263;-78
2022/01/27 06:52:59;;;;;;;24.30;14.00;;;7.60;99.90;;;;;;5004652;28;20213;-78
2022/01/27 06:55:25;;;;;;;21.07;13.70;;;7.60;99.90;;;;;;5013288;28;20869;-79
2022/01/27 06:57:50;;;;;;;27.13;14.07;;;7.60;99.90;;;;;;5005161;28;20215;-78
2022/01/27 07:00:17;;;;;;;27.87;14.60;;;7.60;99.90;;;;;;4989631;28;20188;-79
2022/01/27 07:02:43;;;;;;;26.23;14.60;;;7.70;99.90;;;;;;5007114;28;20677;-79
2022/01/27 07:05:10;;;;;;;27.17;14.80;;;7.70;99.90;;;;;;5006469;28;20288;-79
2022/01/27 07:07:36;;;;;;;33.40;16.07;;;7.70;99.90;;;;;;4986892;28;20318;-81
2022/01/27 07:10:02;;;;;;;27.70;15.63;;;7.70;99.90;;;;;;4988431;28;20635;-79
2022/01/27 07:12:28;;;;;;;28.17;16.13;;;7.70;99.90;;;;;;5003487;28;20319;-80
2022/01/27 07:14:55;;;;;;;22.67;14.97;;;7.70;99.90;;;;;;5007398;28;20270;-80
2022/01/27 07:17:22;;;;;;;30.13;24.30;;;7.70;99.90;;;;;;5003373;28;20199;-79
2022/01/27 07:19:47;;;;;;;219.67;207.77;;;7.70;99.90;;;;;;5006358;28;20665;-79
2022/01/27 07:22:13;;;;;;;244.57;231.20;;;7.60;99.90;;;;;;4988933;28;20201;-79
2022/01/27 07:24:39;;;;;;;258.67;244.60;;;7.50;99.90;;;;;;5008343;28;20195;-79
2022/01/27 07:27:05;;;;;;;275.57;260.00;;;7.30;99.90;;;;;;4987075;28;20226;-78
2022/01/27 07:29:31;;;;;;;280.27;264.37;;;7.30;99.90;;;;;;5012680;28;20294;-79
2022/01/27 07:31:56;;;;;;;294.87;277.57;;;7.20;99.90;;;;;;4991381;28;20668;-78
2022/01/27 07:34:22;;;;;;;303.37;285.43;;;7.20;99.90;;;;;;4991082;28;20187;-79
2022/01/27 07:36:48;;;;;;;309.37;290.93;;;7.20;99.90;;;;;;5009531;28;20195;-78
2022/01/27 07:39:15;;;;;;;322.23;302.20;;;7.20;99.90;;;;;;4968908;28;20230;-79
2022/01/27 07:41:44;;;;;;;323.43;303.40;;;7.10;99.90;;;;;;5011406;28;20215;-79
2022/01/27 07:44:12;;;;;;;324.80;304.87;;;7.10;99.90;;;;;;5003510;28;20573;-79
2022/01/27 07:46:37;;;;;;;326.00;305.30;;;7.10;99.90;;;;;;5006166;28;20207;-79
2022/01/27 07:49:03;;;;;;;335.93;314.83;;;7.10;99.90;;;;;;4994869;28;20201;-79
2022/01/27 07:51:29;;;;;;;337.80;316.13;;;7.10;99.90;;;;;;4996537;28;20752;-79
2022/01/27 07:53:55;;;;;;;338.93;316.93;;;7.10;99.90;;;;;;5012889;28;20198;-80
2022/01/27 07:56:21;;;;;;;350.13;327.20;;;7.10;99.90;;;;;;5012493;28;20231;-79
2022/01/27 07:58:48;;;;;;;349.50;326.17;;;7.10;99.90;;;;;;4996252;28;20314;-78
2022/01/27 08:01:13;;;;;;;353.77;330.10;;;7.10;99.90;;;;;;4973437;28;20933;-79
2022/01/27 08:03:39;;;;;;;350.70;326.93;;;7.10;99.90;;;;;;5013522;28;20195;-78
2022/01/27 08:06:06;;;;;;;363.57;338.90;;;7.10;99.90;;;;;;4997983;28;20310;-80
2022/01/27 08:08:33;;;;;;;361.00;335.97;;;7.10;99.90;;;;;;4990837;28;20518;-78
2022/01/27 08:10:59;;;;;;;359.90;335.37;;;7.20;99.90;;;;;;4990733;28;20257;-80
2022/01/27 08:13:26;;;;;;;364.90;339.87;;;7.20;99.90;;;;;;5010675;28;20207;-80
2022/01/27 08:15:52;;;;;;;370.73;345.30;;;7.30;99.90;;;;;;4996665;28;20513;-79
2022/01/27 08:18:17;;;;;;;370.57;344.63;;;7.20;99.90;;;;;;4989141;28;20223;-79
2022/01/27 08:20:46;;;;;;;368.27;342.47;;;7.30;99.90;;;;;;4997406;28;20225;-79
2022/01/27 08:23:14;;;;;;;371.70;345.47;;;7.30;99.90;;;;;;4988904;28;20282;-79
2022/01/27 08:25:40;;;;;;;376.37;350.47;;;7.30;99.90;;;;;;4996053;28;20215;-79
2022/01/27 08:28:16;;;;;;;379.20;353.17;;;7.30;99.90;;;;;;5011459;28;20234;-79
2022/01/27 08:30:46;;;;;;;371.90;345.57;;;7.30;99.90;;;;;;4996637;28;20191;-79
2022/01/27 08:33:18;;;;;;;371.33;344.77;;;7.40;99.90;;;;;;4990777;28;20271;-79
2022/01/27 08:35:44;;;;;;;369.70;343.40;;;7.40;99.90;;;;;;4971424;28;20290;-80
2022/01/27 08:38:09;;;;;;;375.97;349.00;;;7.40;99.90;;;;;;4996014;28;20286;-78
2022/01/27 08:40:36;;;;;;;374.83;348.63;;;7.40;99.90;;;;;;5007590;28;20195;-78
2022/01/27 08:43:03;;;;;;;371.60;345.27;;;7.40;99.90;;;;;;4993429;28;20215;-79
2022/01/27 08:45:29;;;;;;;378.97;352.23;;;7.50;99.90;;;;;;5007848;28;20695;-79
2022/01/27 08:47:57;;;;;;;370.80;344.47;;;7.50;99.90;;;;;;5007883;28;20187;-79
2022/01/27 08:50:24;;;;;;;379.50;352.57;;;7.50;99.90;;;;;;5009797;28;20301;-79
2022/01/27 08:52:51;;;;;;;371.67;345.10;;;7.50;99.90;;;;;;5010176;28;20195;-80
2022/01/27 08:55:20;;;;;;;382.37;355.20;;;7.50;99.90;;;;;;5009001;28;20201;-79
2022/01/27 08:57:46;;;;;;;384.87;357.27;;;7.50;99.90;;;;;;4991032;28;20543;-77
2022/01/27 09:00:15;;;;;;;374.43;347.47;;;7.50;99.90;;;;;;4969116;28;20290;-79
2022/01/27 09:02:41;;;;;;;375.47;347.80;;;7.60;99.90;;;;;;5007786;28;20677;-79
2022/01/27 09:05:07;;;;;;;384.53;356.00;;;7.60;99.90;;;;;;4985087;28;20222;-79
2022/01/27 09:07:34;;;;;;;383.50;355.43;;;7.60;99.90;;;;;;5007306;28;20225;-80
2022/01/27 09:09:59;;;;;;;384.93;356.47;;;7.60;99.90;;;;;;5007596;28;20210;-79
2022/01/27 09:12:25;;;;;;;392.73;364.20;;;7.60;99.90;;;;;;5005871;28;20216;-79
2022/01/27 09:14:51;;;;;;;376.10;347.70;;;7.60;99.90;;;;;;5007719;28;20246;-78
2022/01/27 09:17:17;;;;;;;379.23;350.97;;;7.70;99.90;;;;;;4998886;28;20552;-80
2022/01/27 09:19:46;;;;;;;396.63;368.10;;;7.70;99.90;;;;;;4989094;28;20199;-79
2022/01/27 09:22:15;;;;;;;386.43;357.53;;;7.70;99.90;;;;;;4991578;28;20571;-79
2022/01/27 09:27:17;;;;;;;378.77;352.23;;;7.80;99.90;;;;;;5009195;28;20211;-79
2022/01/27 09:29:45;;;;;;;376.00;349.97;;;7.80;99.90;;;;;;5008059;28;20191;-78
2022/01/27 09:32:11;;;;;;;367.10;340.87;;;7.90;99.90;;;;;;4992111;28;20223;-78
2022/01/27 09:34:37;;;;;;;356.10;331.93;;;7.90;99.90;;;;;;5009629;28;20270;-78
2022/01/27 09:37:03;;;;;;;348.90;325.07;;;8.00;99.90;;;;;;4984764;28;20210;-80
2022/01/27 09:39:31;;;;;;;348.17;325.00;;;8.10;99.90;;;;;;5008251;28;20207;-79
2022/01/27 09:41:58;;;;;;;352.87;329.47;;;8.10;99.90;;;;;;5007722;28;20301;-79
2022/01/27 09:44:28;;;;;;;344.03;321.53;;;8.10;99.90;;;;;;4989742;28;20207;-79
2022/01/27 09:46:57;;;;;;;325.60;304.10;;;8.10;99.90;;;;;;4969885;28;20920;-79
2022/01/27 09:49:32;;;;;;;311.33;292.10;;;8.20;99.90;;;;;;5007179;28;20202;-79
2022/01/27 09:51:59;;;;;;;297.80;279.27;;;8.10;99.90;;;;;;5005537;28;20653;-79
2022/01/27 09:54:24;;;;;;;271.83;254.67;;;8.20;99.90;;;;;;4991941;28;20184;-80
2022/01/27 09:56:52;;;;;;;263.23;247.37;;;8.20;99.90;;;;;;5008197;28;20194;-79
2022/01/27 09:59:17;;;;;;;236.83;222.23;;;8.30;99.90;;;;;;5007329;28;20561;-80
2022/01/27 10:02:08;;;;;;;232.53;218.63;;;8.30;99.90;;;;;;4991536;28;20274;-79
2022/01/27 10:04:51;;;;;;;224.37;210.70;;;8.30;99.90;;;;;;5008034;28;20207;-80
2022/01/27 10:07:41;;;;;;;209.43;196.77;;;8.30;99.90;;;;;;5007281;28;20207;-79
2022/01/27 10:10:11;;;;;;;197.90;186.27;;;8.30;99.90;;;;;;4981553;28;20207;-80
2022/01/27 10:12:45;;;;;;;192.63;181.07;;;8.40;99.90;;;;;;5022099;28;20203;-80
2022/01/27 10:15:20;;;;;;;171.27;161.17;;;8.40;99.90;;;;;;4999034;28;20187;-80
2022/01/27 10:18:12;;;;;;;166.37;155.47;;;8.40;99.90;;;;;;5009118;28;20252;-80
2022/01/27 10:21:02;;;;;;;163.17;153.47;;;8.50;99.90;;;;;;5008035;28;20191;-80
2022/01/27 10:23:33;;;;;;;162.73;152.00;;;8.50;99.90;;;;;;4998092;28;20430;-78
2022/01/27 10:26:23;;;;;;;158.43;148.43;;;8.50;99.90;;;;;;4989499;28;20227;-80
2022/01/27 10:29:13;;;;;;;155.40;145.97;;;8.50;99.90;;;;;;5009042;28;20199;-79
2022/01/27 10:31:39;;;;;;;155.30;146.03;;;8.60;99.90;;;;;;4993252;28;20328;-79
2022/01/27 10:34:07;;;;;;;153.70;144.57;;;8.60;99.90;;;;;;4991223;28;20199;-79
2022/01/27 10:36:41;;;;;;;154.13;144.23;;;8.60;99.90;;;;;;4983962;28;20707;-80
2022/01/27 10:39:30;;;;;;;150.03;141.10;;;8.60;99.90;;;;;;5007939;28;20230;-81
2022/01/27 10:42:07;;;;;;;152.40;142.77;;;8.60;99.90;;;;;;5005543;28;20230;-79
2022/01/27 10:44:47;;;;;;;153.37;144.30;;;8.60;99.90;;;;;;5004593;28;20202;-79
2022/01/27 10:47:21;;;;;;;153.20;143.50;;;8.50;99.90;;;;;;5006782;28;20566;-78
2022/01/27 10:49:54;;;;;;;150.53;141.90;;;8.50;99.90;;;;;;5004959;28;20247;-79
2022/01/27 10:55:19;;;;;;;152.03;142.60;;;8.60;99.90;;;;;;5007993;28;20195;-79
2022/01/27 10:57:55;;;;;;;150.90;141.27;;;8.60;99.90;;;;;;5006082;28;20207;-79
2022/01/27 11:00:22;;;;;;;152.13;142.83;;;8.60;99.90;;;;;;4990495;28;20696;-79
2022/01/27 11:02:57;;;;;;;152.10;143.57;;;8.60;99.90;;;;;;5004546;28;20187;-80
2022/01/27 11:05:29;;;;;;;149.70;140.97;;;8.60;99.90;;;;;;5006493;28;20605;-80
2022/01/27 11:07:58;;;;;;;146.93;138.00;;;8.60;99.90;;;;;;5007433;28;20585;-80
2022/01/27 11:10:24;;;;;;;143.53;135.23;;;8.60;99.90;;;;;;4991988;28;20306;-80
2022/01/27 11:12:52;;;;;;;140.27;131.63;;;8.60;99.90;;;;;;5006664;28;20283;-80
2022/01/27 11:15:20;;;;;;;137.23;129.63;;;8.60;99.90;;;;;;5006552;28;20199;-79
2022/01/27 11:17:49;;;;;;;136.03;127.37;;;8.60;99.90;;;;;;5021920;28;20187;-79
2022/01/27 11:20:27;;;;;;;135.23;127.07;;;8.80;99.90;;;;;;4979928;28;20309;-79
2022/01/27 11:28:02;;;;;;;114.67;107.97;;;8.80;99.90;;;;;;5005541;28;20263;-80
2022/01/27 11:30:43;;;;;;;110.83;104.50;;;8.80;99.90;;;;;;5005994;28;20251;-79
2022/01/27 11:33:13;;;;;;;95.17;88.97;;;8.80;99.90;;;;;;5005202;28;20235;-80
2022/01/27 11:35:40;;;;;;;88.30;81.70;;;8.80;99.90;;;;;;5007185;28;20329;-81
2022/01/27 11:38:08;;;;;;;79.93;74.30;;;8.90;99.90;;;;;;5004751;28;20211;-81
2022/01/27 11:40:39;;;;;;;74.17;69.63;;;8.90;99.90;;;;;;4989195;28;20226;-81
2022/01/27 11:43:07;;;;;;;72.13;66.67;;;8.90;99.90;;;;;;5004745;28;20239;-79
2022/01/27 11:45:39;;;;;;;63.87;59.77;;;9.00;99.90;;;;;;5004362;28;20635;-80
2022/01/27 11:48:19;;;;;;;61.97;57.33;;;9.10;99.90;;;;;;4996126;28;20242;-82
2022/01/27 11:51:06;;;;;;;60.03;55.73;;;9.20;99.90;;;;;;5004363;28;20223;-80
2022/01/27 11:53:42;;;;;;;59.63;55.03;;;9.20;99.90;;;;;;4998095;28;20603;-79
2022/01/27 11:56:15;;;;;;;55.33;51.30;;;9.20;99.90;;;;;;5004562;28;20191;-81
2022/01/27 11:59:09;;;;;;;59.07;54.70;;;9.20;99.90;;;;;;4998535;28;20215;-80
2022/01/27 12:01:37;;;;;;;54.53;50.87;;;9.20;99.90;;;;;;5001083;28;20286;-79
2022/01/27 12:04:04;;;;;;;51.53;47.57;;;9.20;99.90;;;;;;5005044;28;20191;-79
2022/01/27 12:06:38;;;;;;;51.27;47.83;;;9.30;99.90;;;;;;5004708;28;20222;-80
2022/01/27 12:09:21;;;;;;;51.17;47.33;;;9.30;99.90;;;;;;5009389;28;20664;-79
2022/01/27 12:11:53;;;;;;;48.57;44.63;;;9.30;99.90;;;;;;5001300;28;20196;-80
2022/01/27 12:14:46;;;;;;;47.93;44.07;;;9.30;99.90;;;;;;5025060;28;20187;-80
2022/01/27 12:17:16;;;;;;;47.30;43.83;;;9.40;99.90;;;;;;5010429;28;20202;-80
2022/01/27 12:20:02;;;;;;;44.87;41.30;;;9.40;99.90;;;;;;5003038;28;20196;-80
2022/01/27 12:22:41;;;;;;;44.10;40.47;;;9.40;99.90;;;;;;5012469;28;20191;-81
2022/01/27 12:25:13;;;;;;;44.97;41.57;;;9.40;99.90;;;;;;5012060;28;20330;-80
2022/01/27 12:27:39;;;;;;;41.17;38.17;;;9.40;99.90;;;;;;5012237;28;20303;-81
2022/01/27 12:30:09;;;;;;;41.07;38.00;;;9.50;99.90;;;;;;5009427;28;20190;-79
2022/01/27 12:32:35;;;;;;;41.03;37.60;;;9.50;99.90;;;;;;5007690;28;20245;-78
2022/01/27 12:35:07;;;;;;;39.57;35.93;;;9.50;99.90;;;;;;5009977;28;20291;-79
2022/01/27 12:37:46;;;;;;;37.67;34.20;;;9.50;99.90;;;;;;5000516;28;20206;-79
2022/01/27 12:40:33;;;;;;;38.40;35.40;;;9.70;99.90;;;;;;5025241;28;20272;-78
2022/01/27 12:43:03;;;;;;;36.63;33.97;;;9.90;99.90;;;;;;5006275;28;20606;-79
2022/01/27 12:45:34;;;;;;;36.60;33.43;;;10.00;99.90;;;;;;5008103;28;20514;-80
2022/01/27 12:48:07;;;;;;;34.90;31.87;;;10.10;99.90;;;;;;5007200;28;20902;-78
2022/01/27 12:50:35;;;;;;;34.13;31.43;;;10.10;99.90;;;;;;5009329;28;20221;-78
2022/01/27 12:53:07;;;;;;;31.70;29.03;;;10.10;99.90;;;;;;5003102;28;20243;-80
2022/01/27 12:55:35;;;;;;;32.13;29.87;;;10.20;99.90;;;;;;4992411;28;20334;-81
2022/01/27 12:58:04;;;;;;;32.97;29.53;;;10.10;99.90;;;;;;5001282;28;20208;-79
2022/01/27 13:00:37;;;;;;;30.57;28.13;;;10.10;99.90;;;;;;4992991;28;20191;-79
2022/01/27 13:03:04;;;;;;;26.27;24.40;;;10.20;99.90;;;;;;5010388;28;20261;-79
2022/01/27 13:05:37;;;;;;;25.80;23.57;;;10.10;99.90;;;;;;4985760;28;20195;-79
2022/01/27 13:08:11;;;;;;;29.27;26.90;;;10.10;99.90;;;;;;4969007;28;20219;-81
2022/01/27 13:10:38;;;;;;;25.93;23.87;;;10.20;99.90;;;;;;5010464;28;20199;-78
2022/01/27 13:13:12;;;;;;;25.43;23.13;;;10.20;99.90;;;;;;4991676;28;20635;-79
2022/01/27 13:15:37;;;;;;;22.23;20.07;;;10.40;99.90;;;;;;4999030;28;20275;-80
2022/01/27 13:18:17;;;;;;;21.83;20.13;;;10.40;99.90;;;;;;4990790;28;20299;-79
2022/01/27 13:20:46;;;;;;;21.87;20.47;;;10.50;99.90;;;;;;4989726;28;20206;-79
2022/01/27 13:23:21;;;;;;;23.60;21.40;;;10.50;99.90;;;;;;4991498;28;20206;-79
2022/01/27 13:25:50;;;;;;;20.80;19.00;;;10.50;99.90;;;;;;5007967;28;20906;-80
2022/01/27 13:28:24;;;;;;;23.40;21.30;;;10.50;99.90;;;;;;5009643;28;20212;-80
2022/01/27 13:30:53;;;;;;;23.50;21.30;;;10.40;99.90;;;;;;5010831;28;20222;-80